Time;durP1;ratioP1;P1;durP2;ratioP2;P2;SDS_P1;SDS_P2;PMS_P1;PMS_P2;Temp;Humidity;BMP_temperature;BMP_pressure;BME280_temperature;BME280_humidity;BME280_pressure;Samples;Min_cycle;Max_cycle;Signal;HPM_P1;HPM_P2
2021/05/13 00:00:05;;;;;;;;;;;;;;;11.78;100.00;92397.38;5090425;28;20391;-84
2021/05/13 00:02:31;;;;;;;;;;;;;;;11.79;100.00;92395.59;5090498;28;19924;-84
2021/05/13 00:04:57;;;;;;;;;;;;;;;11.75;100.00;92401.19;5090759;28;20334;-84
2021/05/13 00:07:24;;;;;;;;;;;;;;;11.69;100.00;92399.56;5090884;28;19927;-84
2021/05/13 00:09:50;;;;;;;;;;;;;;;11.64;100.00;92399.50;5090322;28;19930;-84
2021/05/13 00:12:27;;;;;;;;;;;;;;;11.62;100.00;92396.41;5090257;28;20394;-88
2021/05/13 00:14:54;;;;;;;;;;;;;;;11.57;100.00;92399.66;5090937;28;19920;-87
2021/05/13 00:17:20;;;;;;;;;;;;;;;11.59;100.00;92399.44;5090266;28;19920;-87
2021/05/13 00:19:46;;;;;;;;;;;;;;;11.58;100.00;92408.91;5090807;28;20366;-87
2021/05/13 00:22:13;;;;;;;;;;;;;;;11.52;100.00;92409.88;5090839;28;20295;-87
2021/05/13 00:24:39;;;;;;;;;;;;;;;11.40;100.00;92404.81;5090522;28;19924;-87
2021/05/13 00:27:07;;;;;;;;;;;;;;;11.38;100.00;92403.50;5090706;28;19920;-87
2021/05/13 00:29:33;;;;;;;;;;;;;;;11.40;100.00;92401.47;5090332;28;20322;-87
2021/05/13 00:31:59;;;;;;;;;;;;;;;11.42;100.00;92410.50;5090165;28;19920;-87
2021/05/13 00:34:26;;;;;;;;;;;;;;;11.41;100.00;92410.72;5090174;28;19923;-86
2021/05/13 00:36:53;;;;;;;;;;;;;;;11.34;100.00;92416.03;5090155;28;19970;-85
2021/05/13 00:39:19;;;;;;;;;;;;;;;11.33;100.00;92411.91;5102396;28;19930;-85
2021/05/13 00:41:45;;;;;;;;;;;;;;;11.35;100.00;92409.88;5110574;28;19919;-86
2021/05/13 00:44:12;;;;;;;;;;;;;;;11.32;100.00;92402.63;5099850;28;19920;-88
2021/05/13 00:46:38;;;;;;;;;;;;;;;11.27;100.00;92397.41;5090124;28;19924;-89
2021/05/13 00:49:06;;;;;;;;;;;;;;;11.22;100.00;92398.88;5089532;28;19920;-86
2021/05/13 00:51:32;;;;;;;;;;;;;;;11.20;100.00;92395.78;5089490;28;19993;-86
2021/05/13 00:53:59;;;;;;;;;;;;;;;11.16;100.00;92393.91;5089791;28;20411;-86
2021/05/13 00:56:27;;;;;;;;;;;;;;;11.17;100.00;92398.03;5086599;28;20420;-85
2021/05/13 00:58:55;;;;;;;;;;;;;;;11.14;100.00;92396.69;5085328;28;20287;-85
2021/05/13 01:01:23;;;;;;;;;;;;;;;11.12;100.00;92393.59;5087889;28;19935;-85
2021/05/13 01:03:49;;;;;;;;;;;;;;;11.09;100.00;92399.97;5089823;28;20362;-85
2021/05/13 01:06:15;;;;;;;;;;;;;;;11.12;100.00;92398.75;5089766;28;19927;-85
2021/05/13 01:08:42;;;;;;;;;;;;;;;11.05;100.00;92406.59;5088629;28;19983;-85
2021/05/13 01:11:10;;;;;;;;;;;;;;;11.00;100.00;92401.38;5101895;28;19924;-87
2021/05/13 01:13:49;;;;;;;;;;;;;;;10.91;100.00;92395.81;5110009;28;19927;-85
2021/05/13 01:16:25;;;;;;;;;;;;;;;10.81;100.00;92391.31;5110060;28;19923;-85
2021/05/13 01:18:51;;;;;;;;;;;;;;;10.76;100.00;92398.91;5093515;28;20466;-85
2021/05/13 01:21:18;;;;;;;;;;;;;;;10.81;100.00;92393.09;5090106;28;19920;-85
2021/05/13 01:23:46;;;;;;;;;;;;;;;10.80;100.00;92392.28;5088079;28;19966;-85
2021/05/13 01:26:14;;;;;;;;;;;;;;;10.74;100.00;92387.31;5087564;28;20025;-85
2021/05/13 01:28:40;;;;;;;;;;;;;;;10.68;100.00;92394.13;5087862;28;19959;-84
2021/05/13 01:31:06;;;;;;;;;;;;;;;10.68;100.00;92386.44;5087691;28;19951;-85
2021/05/13 01:33:32;;;;;;;;;;;;;;;10.60;100.00;92392.72;5087554;28;20368;-84
2021/05/13 01:35:58;;;;;;;;;;;;;;;10.59;100.00;92380.88;5087531;28;19924;-84
2021/05/13 01:38:25;;;;;;;;;;;;;;;10.53;100.00;92377.47;5087777;28;19920;-84
2021/05/13 01:40:52;;;;;;;;;;;;;;;10.55;100.00;92377.22;5088482;28;19924;-84
2021/05/13 01:43:19;;;;;;;;;;;;;;;10.57;100.00;92375.22;5108135;28;20299;-85
2021/05/13 01:45:45;;;;;;;;;;;;;;;10.56;100.00;92371.84;5107691;28;20310;-85
2021/05/13 01:48:11;;;;;;;;;;;;;;;10.56;100.00;92376.22;5108148;28;19924;-85
2021/05/13 01:50:37;;;;;;;;;;;;;;;10.50;100.00;92375.34;5107987;28;19920;-85
2021/05/13 01:53:04;;;;;;;;;;;;;;;10.47;100.00;92370.69;5107808;28;19953;-86
2021/05/13 01:55:31;;;;;;;;;;;;;;;10.39;100.00;92374.38;5107619;28;19932;-88
2021/05/13 01:57:57;;;;;;;;;;;;;;;10.39;100.00;92371.00;5108370;28;19927;-88
2021/05/13 02:00:25;;;;;;;;;;;;;;;10.38;100.00;92372.03;5108395;28;19920;-88
2021/05/13 02:02:53;;;;;;;;;;;;;;;10.33;100.00;92382.19;5111820;28;20268;-88
2021/05/13 02:05:20;;;;;;;;;;;;;;;10.35;100.00;92382.72;5112208;28;19920;-88
2021/05/13 02:07:46;;;;;;;;;;;;;;;10.28;100.00;92381.09;5111597;28;20276;-88
2021/05/13 02:10:12;;;;;;;;;;;;;;;10.21;100.00;92377.88;5111320;28;19923;-86
2021/05/13 02:12:39;;;;;;;;;;;;;;;10.15;100.00;92371.84;5111608;28;20375;-86
2021/05/13 02:15:07;;;;;;;;;;;;;;;10.14;100.00;92372.09;5111859;28;19923;-85
2021/05/13 02:17:33;;;;;;;;;;;;;;;10.08;100.00;92381.47;5111676;28;19920;-86
2021/05/13 02:19:59;;;;;;;;;;;;;;;10.09;100.00;92377.13;5111741;28;19930;-87
2021/05/13 02:22:25;;;;;;;;;;;;;;;10.09;100.00;92375.31;5111872;28;19928;-87
2021/05/13 02:24:51;;;;;;;;;;;;;;;10.05;100.00;92374.25;5111602;28;19920;-85
2021/05/13 02:27:17;;;;;;;;;;;;;;;9.92;100.00;92377.84;5111643;28;19930;-85
2021/05/13 02:29:44;;;;;;;;;;;;;;;9.73;100.00;92374.63;5111930;28;19920;-87
2021/05/13 02:32:10;;;;;;;;;;;;;;;9.74;100.00;92365.91;5111499;28;19919;-85
2021/05/13 02:34:36;;;;;;;;;;;;;;;9.75;100.00;92368.25;5111703;28;20345;-85
2021/05/13 02:37:03;;;;;;;;;;;;;;;9.70;100.00;92375.84;5111698;28;19981;-85
2021/05/13 02:39:29;;;;;;;;;;;;;;;9.67;100.00;92372.97;5111967;28;20416;-85
2021/05/13 02:41:55;;;;;;;;;;;;;;;9.61;100.00;92374.63;5111474;28;19925;-85
2021/05/13 02:44:21;;;;;;;;;;;;;;;9.64;100.00;92374.19;5112099;28;19920;-85
2021/05/13 02:46:48;;;;;;;;;;;;;;;9.62;100.00;92364.16;5111938;28;19923;-85
2021/05/13 02:49:14;;;;;;;;;;;;;;;9.64;100.00;92363.94;5112247;28;19927;-86
2021/05/13 02:51:40;;;;;;;;;;;;;;;9.69;100.00;92363.25;5112021;28;19920;-88
2021/05/13 02:54:06;;;;;;;;;;;;;;;9.74;100.00;92365.91;5112143;28;20316;-88
2021/05/13 02:56:32;;;;;;;;;;;;;;;9.70;100.00;92372.50;5112399;28;19919;-84
2021/05/13 02:58:58;;;;;;;;;;;;;;;9.70;100.00;92372.50;5111876;28;20371;-86
2021/05/13 03:01:25;;;;;;;;;;;;;;;9.66;100.00;92374.72;5112211;28;19976;-84
2021/05/13 03:03:53;;;;;;;;;;;;;;;9.61;100.00;92377.97;5111777;28;19927;-86
2021/05/13 03:06:19;;;;;;;;;;;;;;;9.59;100.00;92377.41;5111786;28;19920;-87
2021/05/13 03:08:46;;;;;;;;;;;;;;;9.52;100.00;92381.88;5112211;28;19926;-89
2021/05/13 03:11:12;;;;;;;;;;;;;;;9.49;100.00;92390.00;5111494;28;19981;-87
2021/05/13 03:13:38;;;;;;;;;;;;;;;9.46;100.00;92390.47;5110782;28;19919;-87
2021/05/13 03:16:05;;;;;;;;;;;;;;;9.41;100.00;92388.56;5111725;28;19923;-83
2021/05/13 03:18:33;;;;;;;;;;;;;;;9.46;100.00;92387.88;5111430;28;19919;-88
2021/05/13 03:21:04;;;;;;;;;;;;;;;9.49;100.00;92390.00;5112335;28;19920;-89
2021/05/13 03:23:38;;;;;;;;;;;;;;;9.41;100.00;92377.53;5111592;28;19968;-88
2021/05/13 03:26:04;;;;;;;;;;;;;;;9.40;100.00;92375.97;5112073;28;19946;-90
2021/05/13 03:28:30;;;;;;;;;;;;;;;9.40;100.00;92375.97;5111511;28;20079;-87
2021/05/13 03:30:57;;;;;;;;;;;;;;;9.42;100.00;92373.94;5111341;28;20013;-87
2021/05/13 03:33:23;;;;;;;;;;;;;;;9.40;100.00;92373.41;5111057;28;19920;-88
2021/05/13 03:35:49;;;;;;;;;;;;;;;9.36;100.00;92378.19;5126740;28;20234;-88
2021/05/13 03:38:16;;;;;;;;;;;;;;;9.38;100.00;92377.97;5134433;28;20007;-88
2021/05/13 03:40:42;;;;;;;;;;;;;;;9.45;100.00;92378.66;5128472;28;19920;-85
2021/05/13 03:43:08;;;;;;;;;;;;;;;9.49;100.00;92380.53;5091406;28;19920;-85
2021/05/13 03:45:35;;;;;;;;;;;;;;;9.56;100.00;92388.13;5090982;28;19920;-85
2021/05/13 03:48:02;;;;;;;;;;;;;;;9.65;100.00;92388.56;5090723;28;20223;-86
2021/05/13 03:50:29;;;;;;;;;;;;;;;9.78;100.00;92394.44;5090922;28;19924;-85
2021/05/13 03:52:55;;;;;;;;;;;;;;;9.86;100.00;92394.13;5090494;28;20410;-85
2021/05/13 03:55:22;;;;;;;;;;;;;;;9.95;100.00;92394.56;5090911;28;19926;-85
2021/05/13 03:58:04;;;;;;;;;;;;;;;10.09;100.00;92395.84;5090086;28;19931;-84
2021/05/13 04:00:37;;;;;;;;;;;;;;;10.25;100.00;92383.31;5090496;28;20269;-85
2021/05/13 04:03:03;;;;;;;;;;;;;;;10.32;100.00;92383.97;5090775;28;19985;-86
2021/05/13 04:05:29;;;;;;;;;;;;;;;10.43;100.00;92379.84;5090508;28;20006;-86
2021/05/13 04:07:56;;;;;;;;;;;;;;;10.43;100.00;92388.31;5090589;28;19932;-87
2021/05/13 04:10:23;;;;;;;;;;;;;;;10.47;100.00;92398.13;5090775;28;20430;-86
2021/05/13 04:12:51;;;;;;;;;;;;;;;10.52;100.00;92393.09;5090232;28;19924;-86
2021/05/13 04:15:17;;;;;;;;;;;;;;;10.59;100.00;92388.59;5090631;28;19939;-86
2021/05/13 04:17:43;;;;;;;;;;;;;;;10.74;100.00;92384.75;5090347;28;19954;-87
2021/05/13 04:20:10;;;;;;;;;;;;;;;10.73;100.00;92391.66;5090295;28;20299;-86
2021/05/13 04:22:36;;;;;;;;;;;;;;;10.75;100.00;92394.78;5090451;28;19928;-86
2021/05/13 04:25:03;;;;;;;;;;;;;;;10.77;100.00;92395.34;5090252;28;20421;-88
2021/05/13 04:27:30;;;;;;;;;;;;;;;10.81;100.00;92393.88;5090112;28;19955;-87
2021/05/13 04:29:56;;;;;;;;;;;;;;;10.96;100.00;92389.97;5090231;28;19919;-87
2021/05/13 04:32:22;;;;;;;;;;;;;;;10.95;100.00;92391.78;5090223;28;19920;-87
2021/05/13 04:34:48;;;;;;;;;;;;;;;11.02;100.00;92401.13;5090188;28;19920;-86
2021/05/13 04:37:14;;;;;;;;;;;;;;;11.09;100.00;92399.97;5090041;28;20294;-86
2021/05/13 04:39:40;;;;;;;;;;;;;;;11.23;100.00;92394.53;5090239;28;19920;-86
2021/05/13 04:42:06;;;;;;;;;;;;;;;11.30;100.00;92395.13;5101618;28;19920;-86
2021/05/13 04:44:35;;;;;;;;;;;;;;;11.32;100.00;92393.13;5110279;28;20002;-87
2021/05/13 04:47:17;;;;;;;;;;;;;;;11.42;100.00;92397.66;5109608;28;19920;-87
2021/05/13 04:49:43;;;;;;;;;;;;;;;11.45;100.00;92398.97;5110094;28;20418;-87
2021/05/13 04:52:09;;;;;;;;;;;;;;;11.40;100.00;92393.75;5110048;28;19924;-87
2021/05/13 04:54:35;;;;;;;;;;;;;;;11.21;100.00;92368.28;5109793;28;19927;-86
2021/05/13 04:57:01;;;;;;;;;;;;;;;11.40;100.00;92402.25;5108999;28;19919;-88
2021/05/13 04:59:27;;;;;;;;;;;;;;;11.25;100.00;92407.91;5109662;28;19923;-90
2021/05/13 05:01:56;;;;;;;;;;;;;;;11.13;100.00;92402.06;5109793;28;19919;-88
2021/05/13 05:04:22;;;;;;;;;;;;;;;11.21;100.00;92396.56;5109129;28;19981;-87
2021/05/13 05:06:48;;;;;;;;;;;;;;;11.18;100.00;92392.66;5109607;28;19919;-87
2021/05/13 05:09:14;;;;;;;;;;;;;;;11.22;100.00;92388.59;5105439;28;20372;-86
2021/05/13 05:11:40;;;;;;;;;;;;;;;11.23;100.00;92395.31;5107248;28;19919;-87
2021/05/13 05:14:06;;;;;;;;;;;;;;;11.24;100.00;92393.50;5109066;28;19920;-88
2021/05/13 05:16:32;;;;;;;;;;;;;;;11.25;100.00;92399.44;5109476;28;20284;-88
2021/05/13 05:19:04;;;;;;;;;;;;;;;11.46;100.00;92400.53;5109168;28;19923;-87
2021/05/13 05:21:30;;;;;;;;;;;;;;;11.72;100.00;92395.75;5109187;28;19927;-87
2021/05/13 05:23:57;;;;;;;;;;;;;;;11.84;100.00;92393.84;5109550;28;19980;-87
2021/05/13 05:26:25;;;;;;;;;;;;;;;11.72;100.00;92393.19;5109256;28;19927;-86
2021/05/13 05:28:51;;;;;;;;;;;;;;;11.86;100.00;92391.81;5108939;28;19919;-87
2021/05/13 05:31:17;;;;;;;;;;;;;;;11.93;100.00;92394.22;5109509;28;20018;-88
2021/05/13 05:33:43;;;;;;;;;;;;;;;11.97;100.00;92390.16;5109061;28;19919;-87
2021/05/13 05:36:19;;;;;;;;;;;;;;;11.84;100.00;92391.28;5110606;28;19923;-88
2021/05/13 05:38:45;;;;;;;;;;;;;;;12.23;100.00;92392.28;5114144;28;19993;-88
2021/05/13 05:41:12;;;;;;;;;;;;;;;12.34;100.00;92386.25;5113603;28;19924;-89
2021/05/13 05:43:38;;;;;;;;;;;;;;;12.59;100.00;92382.38;5114116;28;19920;-89
2021/05/13 05:46:04;;;;;;;;;;;;;;;12.45;100.00;92386.34;5113164;28;19926;-88
2021/05/13 05:48:31;;;;;;;;;;;;;;;12.56;100.00;92385.44;5112839;28;19984;-89
2021/05/13 05:51:03;;;;;;;;;;;;;;;12.83;100.00;92388.03;5112750;28;19920;-89
2021/05/13 05:53:34;;;;;;;;;;;;;;;13.18;100.00;92391.16;5112427;28;19923;-91
2021/05/13 05:56:07;;;;;;;;;;;;;;;13.36;100.00;92387.44;5113012;28;20366;-90
2021/05/13 05:58:41;;;;;;;;;;;;;;;13.58;100.00;92383.22;5113603;28;19923;-90
2021/05/13 06:01:15;;;;;;;;;;;;;;;13.35;100.00;92380.72;5113729;28;19926;-93
2021/05/13 06:03:44;;;;;;;;;;;;;;;13.43;100.00;92382.06;5113405;28;19934;-91
2021/05/13 06:06:10;;;;;;;;;;;;;;;13.69;100.00;92376.31;5113288;28;19927;-94
2021/05/13 06:08:37;;;;;;;;;;;;;;;13.59;100.00;92377.81;5112948;28;19935;-92
2021/05/13 06:11:03;;;;;;;;;;;;;;;13.72;100.00;92374.03;5112804;28;19923;-90
2021/05/13 06:13:35;;;;;;;;;;;;;;;14.27;100.00;92367.81;5111951;28;19924;-93
2021/05/13 06:16:01;;;;;;;;;;;;;;;14.51;100.00;92368.16;5113559;28;19920;-91
2021/05/13 06:18:27;;;;;;;;;;;;;;;14.90;100.00;92373.94;5113238;28;19931;-89
2021/05/13 06:20:53;;;;;;;;;;;;;;;15.15;100.00;92373.19;5112991;27;19972;-89
2021/05/13 06:23:19;;;;;;;;;;;;;;;15.63;99.64;92375.50;5120283;27;19927;-90
2021/05/13 06:25:46;;;;;;;;;;;;;;;16.02;94.67;92375.97;5112851;28;19976;-89
2021/05/13 06:28:12;;;;;;;;;;;;;;;15.51;96.26;92382.75;5130164;27;19920;-90
2021/05/13 06:30:39;;;;;;;;;;;;;;;16.03;95.31;92373.09;5133150;27;19923;-90
2021/05/13 06:33:06;;;;;;;;;;;;;;;16.50;93.70;92372.13;5133923;27;19920;-91
2021/05/13 06:35:34;;;;;;;;;;;;;;;16.71;90.90;92375.38;5133315;27;19923;-89
2021/05/13 06:38:01;;;;;;;;;;;;;;;17.28;89.57;92372.47;5133428;27;19919;-90
2021/05/13 06:40:27;;;;;;;;;;;;;;;17.56;86.62;92377.16;5133142;27;20319;-90
2021/05/13 06:42:55;;;;;;;;;;;;;;;18.02;88.59;92368.16;5133170;27;19948;-90
2021/05/13 06:45:21;;;;;;;;;;;;;;;18.51;83.01;92363.72;5132959;27;19927;-91
2021/05/13 06:47:47;;;;;;;;;;;;;;;19.06;81.29;92369.50;5131867;27;19930;-91
2021/05/13 06:50:13;;;;;;;;;;;;;;;19.39;75.96;92379.19;5132846;27;19942;-89
2021/05/13 06:52:40;;;;;;;;;;;;;;;19.93;74.70;92373.56;5132767;27;19923;-91
2021/05/13 06:55:11;;;;;;;;;;;;;;;20.32;74.88;92371.59;5133228;27;19927;-92
2021/05/13 06:57:37;;;;;;;;;;;;;;;20.46;68.76;92366.38;5132517;27;20359;-93
2021/05/13 07:00:24;;;;;;;;;;;;;;;20.74;67.45;92371.53;5133172;27;19942;-93
2021/05/13 07:02:53;;;;;;;;;;;;;;;20.92;67.70;92369.88;5117682;27;19924;-93
2021/05/13 07:08:40;;;;;;;;;;;;;;;21.55;61.74;92364.00;5070461;28;19926;-94
2021/05/13 07:11:06;;;;;;;;;;;;;;;21.60;62.34;92362.03;5070935;28;19927;-92
2021/05/13 07:13:36;;;;;;;;;;;;;;;21.71;59.98;92359.97;5069498;28;20075;-93
2021/05/13 07:19:22;;;;;;;;;;;;;;;22.21;58.03;92354.78;4952738;29;19986;-94
2021/05/13 07:21:55;;;;;;;;;;;;;;;22.27;55.61;92356.94;4983032;28;19921;-94
2021/05/13 07:27:20;;;;;;;;;;;;;;;22.55;52.78;92337.66;5044476;27;20394;-93
2021/05/13 07:29:47;;;;;;;;;;;;;;;22.51;53.54;92331.44;5133108;27;19929;-91
2021/05/13 07:32:16;;;;;;;;;;;;;;;22.50;53.75;92337.78;5132883;27;19925;-94
2021/05/13 07:34:42;;;;;;;;;;;;;;;22.40;51.43;92344.81;5133085;27;19923;-90
2021/05/13 07:37:09;;;;;;;;;;;;;;;22.46;50.06;92335.00;5133222;27;19919;-91
2021/05/13 07:39:35;;;;;;;;;;;;;;;22.42;41.59;92328.81;5132681;27;19920;-91
2021/05/13 07:42:01;;;;;;;;;;;;;;;22.68;45.61;92334.13;5131614;27;19976;-91
2021/05/13 07:44:27;;;;;;;;;;;;;;;22.84;45.77;92331.06;5107512;28;19931;-92
2021/05/13 07:46:54;;;;;;;;;;;;;;;23.04;47.15;92334.09;5110531;28;19941;-91
2021/05/13 07:49:21;;;;;;;;;;;;;;;23.02;44.02;92325.81;5109696;28;19920;-91
2021/05/13 07:51:47;;;;;;;;;;;;;;;23.18;47.25;92326.88;5110759;28;19919;-91
2021/05/13 07:54:21;;;;;;;;;;;;;;;23.32;46.49;92326.72;5109077;28;19923;-91
2021/05/13 07:56:47;;;;;;;;;;;;;;;23.42;42.52;92322.25;5111413;28;20365;-90
2021/05/13 07:59:13;;;;;;;;;;;;;;;23.54;45.52;92322.38;5110129;28;19926;-91
2021/05/13 08:01:40;;;;;;;;;;;;;;;23.31;37.35;92319.94;5111236;28;20437;-88
2021/05/13 08:04:06;;;;;;;;;;;;;;;23.14;37.77;92320.69;5110981;28;19923;-91
2021/05/13 08:06:32;;;;;;;;;;;;;;;23.05;41.85;92307.63;5109960;28;20006;-88
2021/05/13 08:08:58;;;;;;;;;;;;;;;22.99;41.01;92314.09;5132793;28;19904;-87
2021/05/13 08:11:25;;;;;;;;;;;;;;;23.09;43.64;92310.38;5135376;28;19907;-88
2021/05/13 08:13:51;;;;;;;;;;;;;;;23.24;40.85;92309.16;5117888;28;19919;-88
2021/05/13 08:16:17;;;;;;;;;;;;;;;23.65;43.04;92303.69;5123784;27;19975;-89
2021/05/13 08:18:43;;;;;;;;;;;;;;;23.70;41.45;92308.75;5132024;27;19927;-89
2021/05/13 08:21:09;;;;;;;;;;;;;;;23.71;41.87;92305.03;5119230;27;19925;-89
2021/05/13 08:23:35;;;;;;;;;;;;;;;23.95;39.54;92296.63;5111524;28;20420;-89
2021/05/13 08:26:01;;;;;;;;;;;;;;;24.18;40.79;92300.84;5110033;28;19997;-89
2021/05/13 08:28:28;;;;;;;;;;;;;;;24.25;40.01;92291.38;5111034;28;19919;-89
2021/05/13 08:30:54;;;;;;;;;;;;;;;24.36;39.62;92281.31;5111066;28;20302;-88
2021/05/13 08:33:20;;;;;;;;;;;;;;;24.28;40.84;92284.72;5111198;28;19920;-88
2021/05/13 08:35:47;;;;;;;;;;;;;;;24.29;39.10;92281.00;5111157;28;19920;-89
2021/05/13 08:38:13;;;;;;;;;;;;;;;24.31;36.68;92285.97;5110972;28;19924;-89
2021/05/13 08:40:39;;;;;;;;;;;;;;;24.36;37.20;92285.78;5110373;28;20010;-87
2021/05/13 08:43:05;;;;;;;;;;;;;;;24.61;40.30;92283.28;5110039;28;19919;-90
2021/05/13 08:45:34;;;;;;;;;;;;;;;24.69;39.90;92285.84;5110367;28;19919;-88
2021/05/13 08:48:01;;;;;;;;;;;;;;;24.47;38.61;92280.91;5110528;28;19927;-87
2021/05/13 08:50:28;;;;;;;;;;;;;;;24.65;38.78;92286.81;5110505;28;19969;-86
2021/05/13 08:52:55;;;;;;;;;;;;;;;24.67;39.03;92284.63;5110345;28;20279;-86
2021/05/13 08:55:21;;;;;;;;;;;;;;;24.60;37.20;92285.16;5110451;28;19923;-85
2021/05/13 08:57:47;;;;;;;;;;;;;;;24.87;39.06;92285.75;5109809;28;19920;-86
2021/05/13 09:00:14;;;;;;;;;;;;;;;24.88;38.11;92294.38;5109943;28;19926;-86
2021/05/13 09:02:50;;;;;;;;;;;;;;;24.77;37.78;92292.09;5110124;28;19920;-85
2021/05/13 09:05:16;;;;;;;;;;;;;;;24.72;38.78;92294.16;5110400;28;19926;-87
2021/05/13 09:07:42;;;;;;;;;;;;;;;24.88;38.08;92279.38;5110273;28;20029;-86
2021/05/13 09:10:09;;;;;;;;;;;;;;;24.94;38.66;92274.69;5108376;28;19926;-88
2021/05/13 09:12:37;;;;;;;;;;;;;;;24.78;36.73;92269.25;5109535;28;19928;-87
2021/05/13 09:15:06;;;;;;;;;;;;;;;24.98;37.41;92266.97;5110107;28;20014;-86
2021/05/13 09:17:33;;;;;;;;;;;;;;;25.03;37.44;92272.75;5109686;28;19920;-87
2021/05/13 09:20:00;;;;;;;;;;;;;;;24.93;37.58;92273.94;5110102;28;19920;-84
2021/05/13 09:22:27;;;;;;;;;;;;;;;25.12;36.92;92269.31;5110206;28;19919;-84
2021/05/13 09:24:55;;;;;;;;;;;;;;;25.24;37.83;92263.28;5106530;28;19931;-85
2021/05/13 09:27:23;;;;;;;;;;;;;;;25.20;36.93;92263.19;5107492;28;19924;-84
2021/05/13 09:30:00;;;;;;;;;;;;;;;25.33;36.49;92266.59;5107962;28;19967;-85
2021/05/13 09:32:26;;;;;;;;;;;;;;;25.49;33.72;92257.00;5109900;28;19920;-84
2021/05/13 09:34:52;;;;;;;;;;;;;;;25.65;32.83;92250.34;5108849;28;20322;-86
2021/05/13 09:37:19;;;;;;;;;;;;;;;25.76;35.63;92248.81;5109768;28;19926;-86
2021/05/13 09:39:46;;;;;;;;;;;;;;;25.84;30.07;92244.56;5109930;28;20317;-85
2021/05/13 09:42:12;;;;;;;;;;;;;;;26.07;33.38;92244.09;5109675;28;19964;-89
2021/05/13 09:44:39;;;;;;;;;;;;;;;25.75;34.20;92244.66;5109757;28;19924;-87
2021/05/13 09:47:12;;;;;;;;;;;;;;;25.64;35.34;92246.94;5109714;28;19953;-88
2021/05/13 09:49:51;;;;;;;;;;;;;;;25.42;34.47;92238.38;5109827;28;19930;-87
2021/05/13 09:52:32;;;;;;;;;;;;;;;25.35;33.71;92238.13;5109434;28;19926;-88
2021/05/13 09:55:10;;;;;;;;;;;;;;;25.21;33.83;92239.22;5109489;28;20299;-89
2021/05/13 09:57:38;;;;;;;;;;;;;;;25.27;34.44;92228.50;5109878;28;19920;-89
2021/05/13 10:00:05;;;;;;;;;;;;;;;25.04;34.56;92232.25;5109830;28;19931;-89
2021/05/13 10:02:31;;;;;;;;;;;;;;;24.72;35.04;92236.41;5109049;28;19972;-88
2021/05/13 10:04:58;;;;;;;;;;;;;;;24.66;35.78;92236.59;5109241;28;20430;-87
2021/05/13 10:07:24;;;;;;;;;;;;;;;24.68;33.85;92231.03;5109361;28;19920;-88
2021/05/13 10:09:50;;;;;;;;;;;;;;;24.84;35.73;92227.84;5109167;28;19923;-89
2021/05/13 10:12:19;;;;;;;;;;;;;;;25.00;35.21;92218.25;5109468;28;19923;-89
2021/05/13 10:14:46;;;;;;;;;;;;;;;25.06;34.27;92224.06;5109597;28;20336;-91
2021/05/13 10:17:15;;;;;;;;;;;;;;;25.04;33.36;92218.38;5109114;28;19920;-91
2021/05/13 10:19:47;;;;;;;;;;;;;;;24.74;34.00;92224.50;5110113;28;19943;-88
2021/05/13 10:22:14;;;;;;;;;;;;;;;24.42;33.65;92222.28;5110846;28;20363;-90
2021/05/13 10:24:40;;;;;;;;;;;;;;;24.66;34.50;92215.59;5113340;28;19962;-89
2021/05/13 10:27:30;;;;;;;;;;;;;;;24.97;34.38;92221.53;4983348;28;20001928;-89
2021/05/13 10:29:59;;;;;;;;;;;;;;;25.08;34.69;92225.28;5112920;28;19920;-90
2021/05/13 10:32:30;;;;;;;;;;;;;;;25.32;33.86;92210.63;5112827;28;19924;-90
2021/05/13 10:34:58;;;;;;;;;;;;;;;25.57;34.14;92212.56;5112713;28;19927;-87
2021/05/13 10:37:30;;;;;;;;;;;;;;;25.78;32.49;92209.81;5112584;28;19965;-87
2021/05/13 10:40:16;;;;;;;;;;;;;;;25.95;31.76;92219.34;5112937;28;19930;-87
2021/05/13 10:42:43;;;;;;;;;;;;;;;25.54;31.77;92223.75;5112776;28;19920;-88
2021/05/13 10:45:24;;;;;;;;;;;;;;;24.93;31.56;92223.25;5112597;28;20333;-88
2021/05/13 10:48:05;;;;;;;;;;;;;;;24.85;32.78;92224.88;5111878;28;19931;-86
2021/05/13 10:50:40;;;;;;;;;;;;;;;24.76;32.03;92221.53;5111778;28;19938;-88
2021/05/13 10:53:26;;;;;;;;;;;;;;;24.89;33.10;92228.41;5112214;28;19923;-89
2021/05/13 10:56:09;;;;;;;;;;;;;;;24.44;33.32;92229.06;5099301;28;20355;-90
2021/05/13 10:58:50;;;;;;;;;;;;;;;24.08;33.67;92228.53;5091895;28;20406;-89
2021/05/13 11:01:36;;;;;;;;;;;;;;;23.81;33.45;92243.59;5092692;28;19928;-88
2021/05/13 11:04:21;;;;;;;;;;;;;;;23.70;34.74;92240.59;5092923;28;20014;-88
2021/05/13 11:06:47;;;;;;;;;;;;;;;23.74;35.25;92233.59;5093788;27;20280;-89
2021/05/13 11:09:38;;;;;;;;;;;;;;;24.22;34.35;92220.41;5116603;27;20459;-88
2021/05/13 11:12:13;;;;;;;;;;;;;;;24.93;31.45;92216.16;5112889;28;20310;-87
2021/05/13 11:14:59;;;;;;;;;;;;;;;25.18;31.86;92216.19;5131422;27;19964;-89
2021/05/13 11:17:39;;;;;;;;;;;;;;;24.90;32.92;92210.78;5133544;27;19942;-89
2021/05/13 11:20:17;;;;;;;;;;;;;;;24.69;33.17;92214.97;5132644;27;20029;-91
2021/05/13 11:22:51;;;;;;;;;;;;;;;24.50;33.42;92219.91;5133044;27;19923;-90
2021/05/13 11:25:17;;;;;;;;;;;;;;;24.33;33.33;92207.66;5127588;27;19927;-89
2021/05/13 11:27:44;;;;;;;;;;;;;;;24.26;34.58;92206.31;5111752;28;20382;-89
2021/05/13 11:33:12;;;;;;;;;;;;;;;24.05;33.43;92206.28;5111563;28;19927;-88
2021/05/13 11:35:41;;;;;;;;;;;;;;;23.95;35.01;92207.44;5113803;28;19931;-89
2021/05/13 11:38:14;;;;;;;;;;;;;;;23.76;34.58;92198.13;5113007;28;19927;-90
2021/05/13 11:40:40;;;;;;;;;;;;;;;23.58;35.23;92207.94;5112420;28;20022;-91
2021/05/13 11:43:28;;;;;;;;;;;;;;;23.41;34.69;92206.16;5112579;28;20358;-91
2021/05/13 11:45:56;;;;;;;;;;;;;;;23.22;34.38;92212.53;5109086;28;20306;-91
2021/05/13 11:48:28;;;;;;;;;;;;;;;23.21;35.13;92203.13;5114135;28;20275;-94
2021/05/13 11:50:57;;;;;;;;;;;;;;;23.15;35.72;92199.13;5117118;28;19920;-93
2021/05/13 11:53:26;;;;;;;;;;;;;;;22.95;35.54;92200.56;5117601;28;20064;-94
2021/05/13 11:55:58;;;;;;;;;;;;;;;22.79;36.41;92205.53;5115051;28;20363;-94
2021/05/13 11:58:44;;;;;;;;;;;;;;;22.70;36.49;92202.94;5116647;28;19923;-94
2021/05/13 12:01:18;;;;;;;;;;;;;;;22.59;36.46;92199.09;5115549;28;19929;-89
2021/05/13 12:03:45;;;;;;;;;;;;;;;22.48;37.16;92199.38;5150147;27;19911;-90
2021/05/13 12:06:11;;;;;;;;;;;;;;;22.57;36.99;92196.78;5156838;27;19907;-88
2021/05/13 12:08:38;;;;;;;;;;;;;;;22.74;36.30;92193.38;5128080;27;19926;-90
2021/05/13 12:11:49;;;;;;;;;;;;;;;23.05;36.45;92187.16;5111592;28;19930;-90
2021/05/13 12:14:18;;;;;;;;;;;;;;;23.52;35.14;92177.75;5111029;28;19920;-90
2021/05/13 12:16:52;;;;;;;;;;;;;;;23.57;35.38;92177.59;5112632;28;19920;-90
2021/05/13 12:19:39;;;;;;;;;;;;;;;23.65;34.51;92175.97;5110516;28;19926;-89
2021/05/13 12:22:06;;;;;;;;;;;;;;;23.43;35.13;92180.44;5111531;28;19926;-91
2021/05/13 12:24:33;;;;;;;;;;;;;;;23.43;36.42;92177.03;5111434;28;19920;-90
2021/05/13 12:27:00;;;;;;;;;;;;;;;23.35;36.02;92174.13;5110667;28;20459;-90
2021/05/13 12:29:38;;;;;;;;;;;;;;;;;;;;;
2021/05/13 12:32:09;;;;;;;;;;;;;;;22.75;37.44;92179.22;5114209;28;19924;-93
2021/05/13 12:34:36;;;;;;;;;;;;;;;22.58;37.75;92182.63;5113880;28;19919;-92
2021/05/13 12:37:05;;;;;;;;;;;;;;;22.28;38.11;92185.81;5113943;28;20010;-94
2021/05/13 12:39:38;;;;;;;;;;;;;;;21.94;37.97;92182.13;5114140;28;19923;-94
2021/05/13 12:42:05;;;;;;;;;;;;;;;21.71;37.44;92176.25;5113284;28;19972;-92
2021/05/13 12:44:36;;;;;;;;;;;;;;;21.42;38.52;92178.28;5115049;28;19920;-94
2021/05/13 12:47:03;;;;;;;;;;;;;;;21.18;39.66;92181.28;5114677;28;19926;-92
2021/05/13 12:49:30;;;;;;;;;;;;;;;21.05;42.17;92182.91;5113400;28;19972;-90
2021/05/13 12:52:06;;;;;;;;;;;;;;;21.01;43.98;92180.13;5112805;28;19920;-90
2021/05/13 12:54:32;;;;;;;;;;;;;;;20.95;43.90;92171.66;5114072;28;20351;-91
2021/05/13 12:57:47;;;;;;;;;;;;;;;20.90;43.34;92171.81;5114106;28;20382;-93
2021/05/13 13:00:21;;;;;;;;;;;;;;;20.83;44.71;92172.19;5072782;28;19928;-94
2021/05/13 13:02:47;;;;;;;;;;;;;;;20.82;44.23;92169.88;5072095;28;19925;-92